createdAt,value
2019-03-31T00:03:57.970Z,69.00
2019-03-31T00:06:46.805Z,70.08
2019-03-31T00:09:35.672Z,70.48
2019-03-31T00:12:24.486Z,70.63
2019-03-31T00:15:13.377Z,69.97
2019-03-31T00:18:02.172Z,70.00
2019-03-31T00:20:51.054Z,70.05
2019-03-31T00:23:39.846Z,70.21
2019-03-31T00:26:28.664Z,70.41
2019-03-31T00:29:17.454Z,71.65
2019-03-31T00:32:06.649Z,71.37
2019-03-31T00:34:55.494Z,70.75
2019-03-31T00:37:44.329Z,70.80
2019-03-31T00:40:33.145Z,71.01
2019-03-31T00:43:21.959Z,70.46
2019-03-31T00:46:10.761Z,70.33
2019-03-31T00:48:52.581Z,70.19
2019-03-31T00:51:41.392Z,70.62
2019-03-31T00:54:30.194Z,70.65
2019-03-31T00:57:19.006Z,70.35
2019-03-31T01:03:04.184Z,70.94
2019-03-31T01:05:52.998Z,71.61
2019-03-31T01:08:41.792Z,71.66
2019-03-31T01:11:30.671Z,71.20
2019-03-31T01:26:57.539Z,71.31
2019-03-31T01:29:46.353Z,70.97
2019-03-31T01:35:44.550Z,71.25
2019-03-31T01:38:33.348Z,71.31
2019-03-31T01:41:22.157Z,71.16
2019-03-31T01:44:10.960Z,71.47
2019-03-31T01:46:59.887Z,72.76
2019-03-31T01:49:41.521Z,73.34
2019-03-31T01:52:30.406Z,73.44
2019-03-31T01:58:27.127Z,72.99
2019-03-31T02:04:25.386Z,72.21
2019-03-31T02:07:14.182Z,72.28
2019-03-31T02:12:58.755Z,73.50
2019-03-31T02:15:47.559Z,73.63
2019-03-31T02:18:36.388Z,73.31
2019-03-31T02:21:25.173Z,74.46
2019-03-31T02:24:13.986Z,74.01
2019-03-31T02:26:55.775Z,73.35
2019-03-31T02:30:03.626Z,73.22
2019-03-31T02:32:52.418Z,72.87
2019-03-31T02:36:01.893Z,72.80
2019-03-31T02:38:50.693Z,72.89
2019-03-31T02:41:39.523Z,73.15
2019-03-31T02:44:28.335Z,73.11
2019-03-31T02:47:17.155Z,73.00
2019-03-31T02:50:26.870Z,73.56
2019-03-31T02:53:36.593Z,73.72
2019-03-31T02:56:46.307Z,73.90
2019-03-31T02:59:56.041Z,73.94
2019-03-31T03:02:44.905Z,73.80
2019-03-31T03:05:54.649Z,74.96
2019-03-31T03:12:14.045Z,74.72
2019-03-31T03:15:23.747Z,74.90
2019-03-31T03:18:12.567Z,75.18
2019-03-31T03:21:01.447Z,75.28
2019-03-31T03:27:04.959Z,74.72
2019-03-31T03:29:53.799Z,74.37
2019-03-31T03:32:35.725Z,74.89
2019-03-31T03:35:24.596Z,75.46
2019-03-31T03:38:13.483Z,75.17
2019-03-31T03:41:02.283Z,75.86
2019-03-31T03:43:55.781Z,77.14
2019-03-31T03:46:41.612Z,77.40
2019-03-31T03:49:23.211Z,77.14
2019-03-31T03:52:12.023Z,76.70
2019-03-31T03:55:00.845Z,76.13
2019-03-31T03:57:49.641Z,75.58
2019-03-31T04:00:38.462Z,75.31
2019-03-31T04:03:46.275Z,74.78
2019-03-31T04:06:35.096Z,74.92
2019-03-31T04:09:23.898Z,76.83
2019-03-31T04:12:12.720Z,77.71
2019-03-31T04:15:01.521Z,77.86
2019-03-31T04:17:50.334Z,78.37
2019-03-31T04:20:39.724Z,81.41
2019-03-31T04:23:29.683Z,82.95
2019-03-31T04:26:18.507Z,81.79
2019-03-31T04:29:07.308Z,81.02
2019-03-31T04:31:56.110Z,79.98
2019-03-31T04:34:44.940Z,78.75
2019-03-31T04:37:33.729Z,78.00
2019-03-31T04:40:22.550Z,78.39
2019-03-31T04:43:11.356Z,79.45
2019-03-31T04:46:00.514Z,79.85
2019-03-31T04:48:49.380Z,79.62
2019-03-31T04:51:30.775Z,80.20
2019-03-31T04:54:19.627Z,79.82
2019-03-31T04:57:27.464Z,79.07
2019-03-31T05:00:35.283Z,78.14
2019-03-31T05:03:24.166Z,77.23
2019-03-31T05:06:12.965Z,77.74
2019-03-31T05:09:01.794Z,77.31
2019-03-31T05:11:50.587Z,76.66
2019-03-31T05:14:39.476Z,76.07
2019-03-31T05:17:28.283Z,76.04
2019-03-31T05:20:17.099Z,75.62
2019-03-31T05:23:05.897Z,76.00
2019-03-31T05:25:54.719Z,76.13
2019-03-31T05:28:44.288Z,76.01
2019-03-31T05:31:27.286Z,75.57
2019-03-31T05:33:56.745Z,75.67
2019-03-31T05:36:45.555Z,75.50
2019-03-31T05:39:34.371Z,75.16
2019-03-31T05:42:23.203Z,74.90
2019-03-31T05:45:31.392Z,74.78
2019-03-31T05:48:20.233Z,76.68
2019-03-31T05:51:09.046Z,77.11
2019-03-31T05:53:57.867Z,77.94
2019-03-31T05:56:46.663Z,78.49
2019-03-31T05:59:35.479Z,78.47
2019-03-31T06:02:24.304Z,77.89
2019-03-31T06:05:13.112Z,77.53
2019-03-31T06:08:01.928Z,76.88
2019-03-31T06:10:50.764Z,76.36
2019-03-31T06:13:39.578Z,75.61
2019-03-31T06:16:28.377Z,75.23
2019-03-31T06:19:17.196Z,74.89
2019-03-31T06:22:05.996Z,75.07
2019-03-31T06:24:54.815Z,74.64
2019-03-31T06:27:43.659Z,74.51
2019-03-31T06:30:32.521Z,74.40
2019-03-31T06:33:14.055Z,74.35
2019-03-31T06:36:02.872Z,73.74
2019-03-31T06:38:51.685Z,72.95
2019-03-31T06:41:40.478Z,72.04
2019-03-31T06:44:29.294Z,71.83
2019-03-31T06:47:18.147Z,72.13
2019-03-31T06:50:26.298Z,72.08
2019-03-31T06:53:15.094Z,72.27
2019-03-31T06:56:03.979Z,72.14
2019-03-31T07:02:03.058Z,71.70
2019-03-31T07:05:00.889Z,71.31
2019-03-31T07:07:41.633Z,70.72
2019-03-31T07:10:30.441Z,70.27
2019-03-31T07:19:28.421Z,69.53
2019-03-31T07:22:17.233Z,69.16
2019-03-31T07:25:27.329Z,68.66
2019-03-31T07:28:16.134Z,68.67
2019-03-31T07:31:04.967Z,68.40
2019-03-31T07:33:47.003Z,67.96
2019-03-31T07:36:35.824Z,67.93
2019-03-31T07:39:24.891Z,67.50
2019-03-31T07:42:15.244Z,67.22
2019-03-31T07:48:33.026Z,66.70
2019-03-31T07:51:14.803Z,66.24
2019-03-31T07:54:03.644Z,66.49
2019-03-31T07:56:53.140Z,66.14
2019-03-31T07:59:43.003Z,65.93
2019-03-31T08:05:39.555Z,64.75
2019-03-31T08:08:28.367Z,64.94
2019-03-31T08:11:17.427Z,64.07
2019-03-31T08:14:07.716Z,63.09
2019-03-31T08:16:56.550Z,61.81
2019-03-31T08:19:45.356Z,62.06
2019-03-31T08:22:53.210Z,61.52
2019-03-31T08:25:42.003Z,60.54
2019-03-31T08:28:30.823Z,60.49
2019-03-31T08:31:19.639Z,61.27
2019-03-31T08:34:01.142Z,60.83
2019-03-31T08:37:09.040Z,60.90
2019-03-31T08:39:57.864Z,60.97
2019-03-31T08:42:46.673Z,62.23
2019-03-31T08:45:35.510Z,62.91
2019-03-31T08:48:24.383Z,63.29
2019-03-31T08:51:13.229Z,63.37
2019-03-31T08:54:02.098Z,63.00
2019-03-31T08:56:50.932Z,63.02
2019-03-31T08:59:39.774Z,63.16
2019-03-31T09:05:28.129Z,61.90
2019-03-31T09:08:16.935Z,60.78
2019-03-31T09:11:06.271Z,60.24
2019-03-31T09:14:14.115Z,60.98
2019-03-31T09:17:02.938Z,61.31
2019-03-31T09:19:51.769Z,59.71
2019-03-31T09:22:40.662Z,59.19
2019-03-31T09:28:23.682Z,59.57
2019-03-31T09:31:12.542Z,60.42
2019-03-31T09:34:01.356Z,61.37
2019-03-31T09:36:50.181Z,62.26
2019-03-31T09:39:39.051Z,63.23
2019-03-31T09:42:27.870Z,64.30
2019-03-31T09:45:16.935Z,64.56
2019-03-31T09:48:05.812Z,63.68
2019-03-31T09:50:56.557Z,63.25
2019-03-31T09:53:45.466Z,63.64
2019-03-31T09:56:34.266Z,64.09
2019-03-31T09:59:23.098Z,63.75
2019-03-31T10:02:11.894Z,63.26
2019-03-31T10:05:00.711Z,62.08
2019-03-31T10:07:49.585Z,61.49
2019-03-31T10:10:38.410Z,61.63
2019-03-31T10:13:27.295Z,60.53
2019-03-31T10:16:35.388Z,59.42
2019-03-31T10:19:43.282Z,59.27
2019-03-31T10:22:32.112Z,59.00
2019-03-31T10:25:20.914Z,58.50
2019-03-31T10:28:09.745Z,58.04
2019-03-31T10:30:58.557Z,58.56
2019-03-31T10:33:47.381Z,57.97
2019-03-31T10:36:28.678Z,57.61
2019-03-31T10:39:17.507Z,57.47
2019-03-31T10:42:06.317Z,57.55
2019-03-31T10:44:55.137Z,57.01
2019-03-31T10:47:43.952Z,57.55
2019-03-31T10:50:32.779Z,57.50
2019-03-31T10:53:21.603Z,57.65
2019-03-31T10:56:29.453Z,56.74
2019-03-31T10:59:18.268Z,55.34
2019-03-31T11:02:07.095Z,53.78
2019-03-31T11:04:55.894Z,53.28
2019-03-31T11:07:44.721Z,52.26
2019-03-31T11:14:01.937Z,54.11
2019-03-31T11:16:50.768Z,53.92
2019-03-31T11:19:39.598Z,53.24
2019-03-31T11:22:47.447Z,52.31
2019-03-31T11:25:36.249Z,51.82
2019-03-31T11:28:32.531Z,52.10
2019-03-31T11:31:21.337Z,51.97
2019-03-31T11:34:10.179Z,52.44
2019-03-31T11:36:52.205Z,54.78
2019-03-31T11:39:41.017Z,55.94
2019-03-31T11:42:29.822Z,56.70
2019-03-31T11:45:18.641Z,56.92
2019-03-31T11:51:15.288Z,56.58
2019-03-31T11:54:04.157Z,56.44
2019-03-31T11:56:52.979Z,56.05
2019-03-31T11:59:41.790Z,55.35
2019-03-31T12:02:30.614Z,54.47
2019-03-31T12:05:19.488Z,56.72
2019-03-31T12:08:08.335Z,56.53
2019-03-31T12:10:57.123Z,55.99
2019-03-31T12:13:45.945Z,55.59
2019-03-31T12:16:34.757Z,55.90
2019-03-31T12:19:23.576Z,56.42
2019-03-31T12:22:31.407Z,56.05
2019-03-31T12:25:20.284Z,56.13
2019-03-31T12:28:09.125Z,56.17
2019-03-31T12:30:57.960Z,55.55
2019-03-31T12:33:46.770Z,55.29
2019-03-31T12:36:28.530Z,55.76
2019-03-31T12:39:17.332Z,54.69
2019-03-31T12:42:06.226Z,54.34
2019-03-31T12:44:55.052Z,55.42
2019-03-31T12:47:43.886Z,55.08
2019-03-31T12:50:32.694Z,55.56
2019-03-31T12:53:21.522Z,55.66
2019-03-31T12:56:29.619Z,55.01
2019-03-31T12:59:18.444Z,55.20
2019-03-31T13:02:07.246Z,54.75
2019-03-31T13:04:56.081Z,54.71
2019-03-31T13:07:55.797Z,54.36
2019-03-31T13:10:35.701Z,54.40
2019-03-31T13:13:24.534Z,54.63
2019-03-31T13:16:13.353Z,55.38
2019-03-31T13:19:21.192Z,55.43
2019-03-31T13:22:10.012Z,55.79
2019-03-31T13:25:02.171Z,55.17
2019-03-31T13:27:49.359Z,56.11
2019-03-31T13:33:47.562Z,55.22
2019-03-31T13:36:29.206Z,56.11
2019-03-31T13:39:18.026Z,56.27
2019-03-31T13:42:06.834Z,56.98
2019-03-31T13:44:55.647Z,58.22
2019-03-31T13:47:44.457Z,58.29
2019-03-31T13:50:33.284Z,58.79
2019-03-31T13:53:22.095Z,59.22
2019-03-31T13:56:11.465Z,59.61
2019-03-31T13:59:01.520Z,60.25
2019-03-31T14:01:50.350Z,60.15
2019-03-31T14:07:46.920Z,61.61
2019-03-31T14:10:35.727Z,61.94
2019-03-31T14:13:24.555Z,62.23
2019-03-31T14:16:13.365Z,62.14
2019-03-31T14:19:02.197Z,62.46
2019-03-31T14:21:51.046Z,62.46
2019-03-31T14:24:39.872Z,62.04
2019-03-31T14:27:28.675Z,62.44
2019-03-31T14:30:17.668Z,61.61
2019-03-31T14:33:06.478Z,61.07
2019-03-31T14:35:55.317Z,61.37
2019-03-31T14:38:40.350Z,61.42
2019-03-31T14:41:27.673Z,60.61
2019-03-31T14:44:16.502Z,60.48
2019-03-31T14:47:05.304Z,60.08
2019-03-31T14:49:54.122Z,60.21
2019-03-31T14:52:42.929Z,59.98
2019-03-31T14:55:31.768Z,59.90
2019-03-31T14:58:20.577Z,59.42
2019-03-31T15:01:09.404Z,59.66
2019-03-31T15:07:26.681Z,59.25
2019-03-31T15:10:15.476Z,59.07
2019-03-31T15:16:19.385Z,58.46
2019-03-31T15:22:15.955Z,57.94
2019-03-31T15:25:25.677Z,57.45
2019-03-31T15:28:14.518Z,57.40
2019-03-31T15:31:03.323Z,57.48
2019-03-31T15:33:52.181Z,57.23
2019-03-31T15:39:42.019Z,55.05
2019-03-31T15:42:30.822Z,51.83
2019-03-31T15:45:19.635Z,50.15
2019-03-31T15:48:08.475Z,48.03
2019-03-31T15:50:57.291Z,47.82
2019-03-31T15:53:46.121Z,46.58
2019-03-31T15:56:34.948Z,45.39
2019-03-31T15:59:23.837Z,44.90
2019-03-31T16:02:12.670Z,44.55
2019-03-31T16:05:01.492Z,44.34
2019-03-31T16:07:50.325Z,44.69
2019-03-31T16:10:39.130Z,44.93
2019-03-31T16:13:27.968Z,45.38
2019-03-31T16:16:16.780Z,44.85
2019-03-31T16:19:05.599Z,44.03
2019-03-31T16:21:54.424Z,44.49
2019-03-31T16:25:02.277Z,45.23
2019-03-31T16:27:51.083Z,46.57
2019-03-31T16:30:39.912Z,47.86
2019-03-31T16:33:28.728Z,47.75
2019-03-31T16:36:17.553Z,49.18
2019-03-31T16:38:58.888Z,50.18
2019-03-31T16:41:47.975Z,50.86
2019-03-31T16:44:36.778Z,52.06
2019-03-31T16:47:25.620Z,52.85
2019-03-31T16:50:34.163Z,53.15
2019-03-31T16:53:22.985Z,52.83
2019-03-31T16:56:11.792Z,53.46
2019-03-31T16:59:00.610Z,53.55
2019-03-31T17:01:49.418Z,53.74
2019-03-31T17:04:38.234Z,53.87
2019-03-31T17:07:27.054Z,54.38
2019-03-31T17:10:35.039Z,54.70
2019-03-31T17:13:23.925Z,55.26
2019-03-31T17:16:15.330Z,55.68
2019-03-31T17:19:03.354Z,56.50
2019-03-31T17:22:11.185Z,56.54
2019-03-31T17:24:59.974Z,57.02
2019-03-31T17:27:48.805Z,57.64
2019-03-31T17:30:37.679Z,58.08
2019-03-31T17:33:26.509Z,58.33
2019-03-31T17:36:15.318Z,58.94
2019-03-31T17:42:19.410Z,60.21
2019-03-31T17:48:23.717Z,61.59
2019-03-31T17:51:12.583Z,61.85
2019-03-31T17:54:01.404Z,61.72
2019-03-31T17:57:09.224Z,62.06
2019-03-31T17:59:58.371Z,62.31
2019-03-31T18:02:47.174Z,62.84
2019-03-31T18:05:35.994Z,63.75
2019-03-31T18:08:24.798Z,62.57
2019-03-31T18:11:13.617Z,62.43
2019-03-31T18:14:02.413Z,62.97
2019-03-31T18:16:51.228Z,63.13
2019-03-31T18:19:40.050Z,63.21
2019-03-31T18:22:28.846Z,63.23
2019-03-31T18:25:17.666Z,62.83
2019-03-31T18:27:59.236Z,63.10
2019-03-31T18:30:48.056Z,63.24
2019-03-31T18:33:36.853Z,63.60
2019-03-31T18:36:36.403Z,63.81
2019-03-31T18:39:16.201Z,63.96
2019-03-31T18:42:05.315Z,64.03
2019-03-31T18:44:54.384Z,63.86
2019-03-31T18:47:43.205Z,64.32
2019-03-31T18:50:32.025Z,63.93
2019-03-31T18:53:39.894Z,64.11
2019-03-31T18:56:47.797Z,64.21
2019-03-31T18:59:55.592Z,64.12
2019-03-31T19:03:03.442Z,64.12
2019-03-31T19:06:11.260Z,64.26
2019-03-31T19:09:19.103Z,64.69
2019-03-31T19:12:26.929Z,65.02
2019-03-31T19:15:34.767Z,64.70
2019-03-31T19:21:51.988Z,64.81
2019-03-31T19:24:59.800Z,65.10
2019-03-31T19:31:02.098Z,65.38
2019-03-31T19:34:09.938Z,65.33
2019-03-31T19:37:17.777Z,65.64
2019-03-31T19:40:46.530Z,65.38
2019-03-31T19:43:54.371Z,65.39
2019-03-31T19:53:27.046Z,65.07
2019-03-31T19:56:34.870Z,64.91
2019-03-31T19:59:42.723Z,64.69
2019-03-31T20:05:59.937Z,65.11
2019-03-31T20:09:07.760Z,65.00
2019-03-31T20:12:15.607Z,64.87
2019-03-31T20:18:38.295Z,65.06
2019-03-31T20:24:48.237Z,64.78
2019-03-31T20:31:05.455Z,64.80
2019-03-31T20:34:13.278Z,64.89
2019-03-31T20:37:21.132Z,64.83
2019-03-31T20:43:25.265Z,64.72
2019-03-31T20:46:14.063Z,64.27
2019-03-31T20:49:02.883Z,64.59
2019-03-31T20:51:51.677Z,64.57
2019-03-31T20:54:40.494Z,64.59
2019-03-31T20:57:29.348Z,64.60
2019-03-31T21:00:18.279Z,64.86
2019-03-31T21:03:07.143Z,64.82
2019-03-31T21:05:56.015Z,64.80
2019-03-31T21:08:44.833Z,64.86
2019-03-31T21:11:33.677Z,64.77
2019-03-31T21:14:15.465Z,64.77
2019-03-31T21:17:04.275Z,64.84
2019-03-31T21:19:53.080Z,64.61
2019-03-31T21:22:41.890Z,64.38
2019-03-31T21:25:30.775Z,64.24
2019-03-31T21:28:19.567Z,64.27
2019-03-31T21:31:08.693Z,64.34
2019-03-31T21:37:24.267Z,64.29
2019-03-31T21:40:13.058Z,64.34
2019-03-31T21:43:01.878Z,64.70
2019-03-31T21:46:09.696Z,64.31
2019-03-31T21:48:58.509Z,64.55
2019-03-31T21:51:47.301Z,64.52
2019-03-31T21:54:36.116Z,64.68
2019-03-31T21:57:24.912Z,64.88
2019-03-31T22:00:13.870Z,64.78
2019-03-31T22:06:12.067Z,64.75
2019-03-31T22:09:00.878Z,64.45
2019-03-31T22:11:49.692Z,64.45
2019-03-31T22:14:31.824Z,64.58
2019-03-31T22:17:20.891Z,65.20
2019-03-31T22:26:12.160Z,65.31
2019-03-31T22:29:00.972Z,65.50
2019-03-31T22:31:49.796Z,65.61
2019-03-31T22:34:38.617Z,65.50
2019-03-31T22:37:27.416Z,65.61
2019-03-31T22:40:16.230Z,65.65
2019-03-31T22:43:07.703Z,65.87
2019-03-31T22:45:55.557Z,65.24
2019-03-31T22:48:44.374Z,65.37
2019-03-31T22:54:40.999Z,65.60
2019-03-31T22:57:29.800Z,65.30
2019-03-31T23:03:17.867Z,65.49
2019-03-31T23:06:06.671Z,65.37
2019-03-31T23:08:55.472Z,65.21
2019-03-31T23:11:44.264Z,65.09
2019-03-31T23:14:33.085Z,64.74
2019-03-31T23:17:21.934Z,64.59
2019-03-31T23:20:10.811Z,64.59
2019-03-31T23:22:59.632Z,64.41
2019-03-31T23:25:48.425Z,64.60
2019-03-31T23:31:32.963Z,64.40
2019-03-31T23:34:21.767Z,64.81
2019-03-31T23:37:10.579Z,65.10
2019-03-31T23:39:59.370Z,64.73
2019-03-31T23:42:48.196Z,65.28
2019-03-31T23:45:37.015Z,65.07
2019-03-31T23:48:25.812Z,65.04
2019-03-31T23:51:14.636Z,65.20
2019-03-31T23:54:03.429Z,65.16
2019-03-31T23:56:52.253Z,65.64
2019-03-31T23:59:41.056Z,65.34
